Kostantis I — SY3315 — position and weather

sailwx.info

Track history (hours):
 
Tides and Currents Weather Stations Pressure Air Temp Water Temp Dewpoint Dewpoint Depression Visibility Wind Speed Wind Dir Waves Ship Positions

Kostantis I

Last reported at 2017-Sep-20 03:49 UTC. Time now 2017-Sep-24 10:41 UTC.
Position N 40°51' E 024°19'.

Length 28 m; draft 2.5 m.

Type: Fishing. MMSI: 240220000.

Date/timePositionNaut miles runAvg speedWind from/ knotsBaromVisibWave heightAir tempDewpointWater temp
2017-Sep-20 03:49N 40°51' E 024°19'2 7.5
2017-Sep-20 03:30N 40°49' E 024°20'5 9.9
2017-Sep-20 03:00N 40°45' E 024°15'5 9.5
2017-Sep-20 02:30N 40°42' E 024°11'5 9.6
2017-Sep-20 02:00N 40°38' E 024°06'4 6.9
2017-Sep-20 01:23N 40°35' E 024°03'1 0.4
2017-Sep-19 23:38N 40°35' E 024°04'0 0.7
2017-Sep-19 23:28N 40°35' E 024°04'5 8.1
2017-Sep-19 22:55N 40°31' E 024°01'410.9
2017-Sep-19 22:30N 40°28' E 023°57'5 9.4
2017-Sep-19 21:58N 40°24' E 023°54'2 3.7
2017-Sep-19 21:28N 40°25' E 023°55'12 3.2
2017-Sep-19 17:45N 40°35' E 024°04'0 0.3
2017-Sep-19 17:30N 40°35' E 024°04'1 1.9
2017-Sep-19 17:00N 40°34' E 024°04'1 2.7
2017-Sep-19 16:30N 40°34' E 024°05'5 9.7
2017-Sep-19 16:00N 40°38' E 024°10'510.1
2017-Sep-19 15:30N 40°42' E 024°14'510.3
2017-Sep-19 15:00N 40°46' E 024°18'5 9.2
2017-Sep-19 14:30N 40°50' E 024°20'0 0.0
2017-Sep-19 03:07N 40°50' E 024°21'110.0
2017-Sep-19 03:00N 40°49' E 024°20'510.0
2017-Sep-19 02:30N 40°45' E 024°16'5 9.5
2017-Sep-19 01:58N 40°40' E 024°13'11 5.5
2017-Sep-18 23:55N 40°32' E 024°03'0 0.6
2017-Sep-18 23:23N 40°32' E 024°03'0 0.6
2017-Sep-18 22:40N 40°32' E 024°03'1 7.0
2017-Sep-18 22:30N 40°31' E 024°02'510.2
2017-Sep-18 22:00N 40°27' E 023°57'4 7.4
2017-Sep-18 21:25N 40°24' E 023°54'3 6.3
2017-Sep-18 21:00N 40°26' E 023°56'510.9
2017-Sep-18 20:30N 40°30' E 024°01'3 5.3
2017-Sep-18 19:56N 40°32' E 024°03'0 0.3
2017-Sep-18 19:23N 40°32' E 024°03'0 0.9
2017-Sep-18 18:57N 40°32' E 024°03'0 0.0
2017-Sep-18 18:27N 40°32' E 024°03'0 0.0
2017-Sep-18 17:58N 40°32' E 024°03'0 0.7
2017-Sep-18 17:30N 40°32' E 024°03'1 2.3
2017-Sep-18 17:01N 40°31' E 024°03'4 8.3
2017-Sep-18 16:30N 40°34' E 024°07'510.0
2017-Sep-18 16:00N 40°38' E 024°11'5 9.9
2017-Sep-18 15:30N 40°42' E 024°15'5 9.8
2017-Sep-18 15:00N 40°46' E 024°18'4 8.3
2017-Sep-18 14:30N 40°50' E 024°20'1 0.0
2017-Sep-18 02:43N 40°50' E 024°20'2 9.2
2017-Sep-18 02:31N 40°48' E 024°20'510.6
2017-Sep-18 02:01N 40°44' E 024°16'510.5
2017-Sep-18 01:30N 40°39' E 024°12'510.2
2017-Sep-18 01:00N 40°35' E 024°09'4 7.5
2017-Sep-18 00:28N 40°31' E 024°06'0 0.1
2017-Sep-17 23:53N 40°31' E 024°07'0 0.8
2017-Sep-17 23:30N 40°31' E 024°06'1 1.4
2017-Sep-17 23:00N 40°31' E 024°07'5 9.9
2017-Sep-17 22:30N 40°28' E 024°01'510.6
2017-Sep-17 22:00N 40°25' E 023°56'2 3.8
2017-Sep-17 21:31N 40°24' E 023°54'510.0
2017-Sep-17 21:01N 40°27' E 023°59'510.6
2017-Sep-17 20:31N 40°30' E 024°04'2 4.2
2017-Sep-17 20:00N 40°31' E 024°07'0 0.2
2017-Sep-17 19:30N 40°31' E 024°06'0 0.5
2017-Sep-17 18:58N 40°31' E 024°06'0 0.8
2017-Sep-17 18:30N 40°31' E 024°07'0 0.7
2017-Sep-17 18:00N 40°31' E 024°07'4 7.6
2017-Sep-17 17:30N 40°28' E 024°10'2 4.4
2017-Sep-17 16:59N 40°27' E 024°07'4 8.6
2017-Sep-17 16:30N 40°31' E 024°07'5 9.4
2017-Sep-17 16:00N 40°35' E 024°08'5 9.1
2017-Sep-17 15:30N 40°39' E 024°11'5 9.8
2017-Sep-17 15:00N 40°43' E 024°14'510.1
2017-Sep-17 14:30N 40°47' E 024°19'23 1.3
2017-Sep-16 21:05N 40°25' E 024°10'0 4.7
2017-Sep-16 21:00N 40°25' E 024°10'0 0.8
2017-Sep-16 20:30N 40°25' E 024°09'0 0.2
2017-Sep-16 20:00N 40°25' E 024°09'0 0.7
2017-Sep-16 19:29N 40°25' E 024°10'0 0.0
2017-Sep-16 18:58N 40°25' E 024°10'0 0.0
2017-Sep-16 18:30N 40°25' E 024°10'0 0.2
2017-Sep-16 17:42N 40°25' E 024°10'1 3.0
2017-Sep-16 17:31N 40°25' E 024°09'3 5.7
2017-Sep-16 17:01N 40°27' E 024°07'5 9.7
2017-Sep-16 16:30N 40°32' E 024°10'5 9.6
2017-Sep-16 16:01N 40°36' E 024°13'5 9.7
2017-Sep-16 15:31N 40°40' E 024°15'5 9.9
2017-Sep-16 15:00N 40°45' E 024°18'5 9.8
2017-Sep-16 14:31N 40°50' E 024°21'26 1.2
2017-Sep-15 17:23N 40°25' E 024°08'1 3.4
2017-Sep-15 17:00N 40°26' E 024°06'2 4.7
2017-Sep-15 16:30N 40°28' E 024°05'3 6.9
2017-Sep-15 16:01N 40°31' E 024°06'4 8.8
2017-Sep-15 15:31N 40°35' E 024°09'4 8.9
2017-Sep-15 15:00N 40°38' E 024°13'5 9.1
2017-Sep-15 14:30N 40°42' E 024°15'5 9.2
2017-Sep-15 14:00N 40°46' E 024°18'4 7.8
2017-Sep-15 13:30N 40°50' E 024°20'22 1.1
2017-Sep-14 17:22N 40°34' E 024°00'1 2.7
2017-Sep-14 17:00N 40°34' E 024°01'4 7.1
2017-Sep-14 16:30N 40°32' E 024°04'4 7.0
2017-Sep-14 16:00N 40°35' E 024°04'4 8.2
2017-Sep-14 15:30N 40°38' E 024°08'4 8.6
2017-Sep-14 15:00N 40°41' E 024°12'4 8.8
2017-Sep-14 14:30N 40°44' E 024°16'5 9.2
2017-Sep-14 14:00N 40°48' E 024°19'20 0.4
2017-Sep-12 17:05N 40°34' E 024°01'0 3.7
2017-Sep-12 17:00N 40°34' E 024°02'1 1.2
2017-Sep-12 16:28N 40°34' E 024°02'4 9.4
2017-Sep-12 16:00N 40°37' E 024°06'5 9.9
2017-Sep-12 15:30N 40°41' E 024°11'5 9.5
2017-Sep-12 15:00N 40°44' E 024°15'5 9.4
2017-Sep-12 14:30N 40°48' E 024°19'9 0.4
2017-Sep-11 15:53N 40°41' E 024°12'4 9.7
2017-Sep-11 15:30N 40°44' E 024°15'5 9.7
2017-Sep-11 15:00N 40°48' E 024°19'6 0.3
2017-Sep-10 15:14N 40°43' E 024°14'2 9.4
2017-Sep-10 15:00N 40°45' E 024°15'  
Track history (hours):
 
Tides and Currents Weather Stations Pressure Air Temp Water Temp Dewpoint Dewpoint Depression Visibility Wind Speed Wind Dir Waves Ship Positions

Kostantis I

Last reported at 2017-Sep-20 03:49 UTC. Time now 2017-Sep-24 10:41 UTC.
Position N 40°51' E 024°19'.

Length 28 m; draft 2.5 m.

Type: Fishing. MMSI: 240220000.

Date/timePositionNaut miles runAvg speedWind from/ knotsBaromVisibWave heightAir tempDewpointWater temp
2017-Sep-20 03:49N 40°51' E 024°19'2 7.5
2017-Sep-20 03:30N 40°49' E 024°20'5 9.9
2017-Sep-20 03:00N 40°45' E 024°15'5 9.5
2017-Sep-20 02:30N 40°42' E 024°11'5 9.6
2017-Sep-20 02:00N 40°38' E 024°06'4 6.9
2017-Sep-20 01:23N 40°35' E 024°03'1 0.4
2017-Sep-19 23:38N 40°35' E 024°04'0 0.7
2017-Sep-19 23:28N 40°35' E 024°04'5 8.1
2017-Sep-19 22:55N 40°31' E 024°01'410.9
2017-Sep-19 22:30N 40°28' E 023°57'5 9.4
2017-Sep-19 21:58N 40°24' E 023°54'2 3.7
2017-Sep-19 21:28N 40°25' E 023°55'12 3.2
2017-Sep-19 17:45N 40°35' E 024°04'0 0.3
2017-Sep-19 17:30N 40°35' E 024°04'1 1.9
2017-Sep-19 17:00N 40°34' E 024°04'1 2.7
2017-Sep-19 16:30N 40°34' E 024°05'5 9.7
2017-Sep-19 16:00N 40°38' E 024°10'510.1
2017-Sep-19 15:30N 40°42' E 024°14'510.3
2017-Sep-19 15:00N 40°46' E 024°18'5 9.2
2017-Sep-19 14:30N 40°50' E 024°20'0 0.0
2017-Sep-19 03:07N 40°50' E 024°21'110.0
2017-Sep-19 03:00N 40°49' E 024°20'510.0
2017-Sep-19 02:30N 40°45' E 024°16'5 9.5
2017-Sep-19 01:58N 40°40' E 024°13'11 5.5
2017-Sep-18 23:55N 40°32' E 024°03'0 0.6
2017-Sep-18 23:23N 40°32' E 024°03'0 0.6
2017-Sep-18 22:40N 40°32' E 024°03'1 7.0
2017-Sep-18 22:30N 40°31' E 024°02'510.2
2017-Sep-18 22:00N 40°27' E 023°57'4 7.4
2017-Sep-18 21:25N 40°24' E 023°54'3 6.3
2017-Sep-18 21:00N 40°26' E 023°56'510.9
2017-Sep-18 20:30N 40°30' E 024°01'3 5.3
2017-Sep-18 19:56N 40°32' E 024°03'0 0.3
2017-Sep-18 19:23N 40°32' E 024°03'0 0.9
2017-Sep-18 18:57N 40°32' E 024°03'0 0.0
2017-Sep-18 18:27N 40°32' E 024°03'0 0.0
2017-Sep-18 17:58N 40°32' E 024°03'0 0.7
2017-Sep-18 17:30N 40°32' E 024°03'1 2.3
2017-Sep-18 17:01N 40°31' E 024°03'4 8.3
2017-Sep-18 16:30N 40°34' E 024°07'510.0
2017-Sep-18 16:00N 40°38' E 024°11'5 9.9
2017-Sep-18 15:30N 40°42' E 024°15'5 9.8
2017-Sep-18 15:00N 40°46' E 024°18'4 8.3
2017-Sep-18 14:30N 40°50' E 024°20'1 0.0
2017-Sep-18 02:43N 40°50' E 024°20'2 9.2
2017-Sep-18 02:31N 40°48' E 024°20'510.6
2017-Sep-18 02:01N 40°44' E 024°16'510.5
2017-Sep-18 01:30N 40°39' E 024°12'510.2
2017-Sep-18 01:00N 40°35' E 024°09'4 7.5
2017-Sep-18 00:28N 40°31' E 024°06'0 0.1
2017-Sep-17 23:53N 40°31' E 024°07'0 0.8
2017-Sep-17 23:30N 40°31' E 024°06'1 1.4
2017-Sep-17 23:00N 40°31' E 024°07'5 9.9
2017-Sep-17 22:30N 40°28' E 024°01'510.6
2017-Sep-17 22:00N 40°25' E 023°56'2 3.8
2017-Sep-17 21:31N 40°24' E 023°54'510.0
2017-Sep-17 21:01N 40°27' E 023°59'510.6
2017-Sep-17 20:31N 40°30' E 024°04'2 4.2
2017-Sep-17 20:00N 40°31' E 024°07'0 0.2
2017-Sep-17 19:30N 40°31' E 024°06'0 0.5
2017-Sep-17 18:58N 40°31' E 024°06'0 0.8
2017-Sep-17 18:30N 40°31' E 024°07'0 0.7
2017-Sep-17 18:00N 40°31' E 024°07'4 7.6
2017-Sep-17 17:30N 40°28' E 024°10'2 4.4
2017-Sep-17 16:59N 40°27' E 024°07'4 8.6
2017-Sep-17 16:30N 40°31' E 024°07'5 9.4
2017-Sep-17 16:00N 40°35' E 024°08'5 9.1
2017-Sep-17 15:30N 40°39' E 024°11'5 9.8
2017-Sep-17 15:00N 40°43' E 024°14'510.1
2017-Sep-17 14:30N 40°47' E 024°19'23 1.3
2017-Sep-16 21:05N 40°25' E 024°10'0 4.7
2017-Sep-16 21:00N 40°25' E 024°10'0 0.8
2017-Sep-16 20:30N 40°25' E 024°09'0 0.2
2017-Sep-16 20:00N 40°25' E 024°09'0 0.7
2017-Sep-16 19:29N 40°25' E 024°10'0 0.0
2017-Sep-16 18:58N 40°25' E 024°10'0 0.0
2017-Sep-16 18:30N 40°25' E 024°10'0 0.2
2017-Sep-16 17:42N 40°25' E 024°10'1 3.0
2017-Sep-16 17:31N 40°25' E 024°09'3 5.7
2017-Sep-16 17:01N 40°27' E 024°07'5 9.7
2017-Sep-16 16:30N 40°32' E 024°10'5 9.6
2017-Sep-16 16:01N 40°36' E 024°13'5 9.7
2017-Sep-16 15:31N 40°40' E 024°15'5 9.9
2017-Sep-16 15:00N 40°45' E 024°18'5 9.8
2017-Sep-16 14:31N 40°50' E 024°21'26 1.2
2017-Sep-15 17:23N 40°25' E 024°08'1 3.4
2017-Sep-15 17:00N 40°26' E 024°06'2 4.7
2017-Sep-15 16:30N 40°28' E 024°05'3 6.9
2017-Sep-15 16:01N 40°31' E 024°06'4 8.8
2017-Sep-15 15:31N 40°35' E 024°09'4 8.9
2017-Sep-15 15:00N 40°38' E 024°13'5 9.1
2017-Sep-15 14:30N 40°42' E 024°15'5 9.2
2017-Sep-15 14:00N 40°46' E 024°18'4 7.8
2017-Sep-15 13:30N 40°50' E 024°20'22 1.1
2017-Sep-14 17:22N 40°34' E 024°00'1 2.7
2017-Sep-14 17:00N 40°34' E 024°01'4 7.1
2017-Sep-14 16:30N 40°32' E 024°04'4 7.0
2017-Sep-14 16:00N 40°35' E 024°04'4 8.2
2017-Sep-14 15:30N 40°38' E 024°08'4 8.6
2017-Sep-14 15:00N 40°41' E 024°12'4 8.8
2017-Sep-14 14:30N 40°44' E 024°16'5 9.2
2017-Sep-14 14:00N 40°48' E 024°19'20 0.4
2017-Sep-12 17:05N 40°34' E 024°01'0 3.7
2017-Sep-12 17:00N 40°34' E 024°02'1 1.2
2017-Sep-12 16:28N 40°34' E 024°02'4 9.4
2017-Sep-12 16:00N 40°37' E 024°06'5 9.9
2017-Sep-12 15:30N 40°41' E 024°11'5 9.5
2017-Sep-12 15:00N 40°44' E 024°15'5 9.4
2017-Sep-12 14:30N 40°48' E 024°19'9 0.4
2017-Sep-11 15:53N 40°41' E 024°12'4 9.7
2017-Sep-11 15:30N 40°44' E 024°15'5 9.7
2017-Sep-11 15:00N 40°48' E 024°19'6 0.3
2017-Sep-10 15:14N 40°43' E 024°14'2 9.4
2017-Sep-10 15:00N 40°45' E 024°15'  

Dump ship's entire track history